Dades meteomassalio
Diari Summary for Marc 10, 2018 Units:  Metric    English   Both
« Previous Day
Next Day »
Diari Semanal Mensual Anual Personalitzat
  Maxima: Minima: Mijana:
Temperatura: -17.8 °C -13.2 °C -10.2 °C
Rosada: -17.8 °C -15.4 °C -13.2 °C
Humitat: Humidity % 44 % 71 %
Velocitat del vent: 0 km/h 0 km/h 7.1 km/h
Racha vent: 0 km/h - -
Vent:- - WSW
Pressio: 0 hPa 33992.1 hPa -
Pluja: 58.42 mm    
Historical Graphs
 
 
Tabular Data for Marc 10, 2018
Time Temperature Dew Point Pressure Wind Wind Speed Wind Gust Humidity Rainfall Rate (Hourly) solar Conditions
-17.8 °C -17.8 °C 0 hPa Calm     Humidity % 0 mm SolarRadiationWatts/m^2 W/m2 Conditions
00:04 -11.6 °C -12.7 °C 34212.1 hPa Calm     87 % 0 mm 0.0 W/m2 RA
00:09 -11.6 °C -12.7 °C 34212.1 hPa ENE 12.9 km/h 12.9 km/h 87 % 0 mm 0.0 W/m2 CLR
00:14 -11.6 °C -12.7 °C 34212.1 hPa Calm     88 % 0 mm 0.0 W/m2 CLR
00:19 -11.6 °C -12.7 °C 34212.1 hPa Calm     88 % 0 mm 0.0 W/m2 CLR
00:24 -11.9 °C -12.9 °C 34212.1 hPa Calm     89 % 0 mm 0.0 W/m2 CLR
00:29 -11.9 °C -12.9 °C 34212.1 hPa Calm     89 % 0 mm 0.0 W/m2 CLR
00:34 -12.2 °C -13.2 °C 34212.1 hPa Calm     89 % 0 mm 0.0 W/m2 CLR
00:39 -12.2 °C -13.2 °C 34212.1 hPa East 11.9 km/h 11.9 km/h 89 % 0 mm 0.0 W/m2 CLR
00:45 -11.9 °C -12.8 °C 34212.1 hPa Calm     90 % 0 mm 0.0 W/m2 CLR
00:50 -11.9 °C -12.8 °C 34212.1 hPa Calm     90 % 0 mm 0.0 W/m2 CLR
00:55 -11.9 °C -12.8 °C 34212.1 hPa Calm     90 % 0 mm 0.0 W/m2 CLR
01:00 -11.9 °C -12.9 °C 34212.1 hPa Calm     89 % 0 mm 0.0 W/m2 CLR
01:05 -11.9 °C -12.9 °C 34212.1 hPa Calm     88 % 0 mm 0.0 W/m2 CLR
01:10 -11.9 °C -12.9 °C 34198.6 hPa Calm     88 % 0 mm 0.0 W/m2 CLR
01:15 -11.9 °C -12.9 °C 34198.6 hPa Calm     88 % 0 mm 0.0 W/m2 CLR
01:20 -11.9 °C -13.1 °C 34212.1 hPa Calm     87 % 0 mm 0.0 W/m2 CLR
01:25 -11.9 °C -13.2 °C 34198.6 hPa Calm     86 % 0 mm 0.0 W/m2 CLR
01:30 -11.9 °C -13.3 °C 34198.6 hPa Calm     85 % 0 mm 0.0 W/m2 CLR
01:35 -11.9 °C -13.4 °C 34198.6 hPa Calm     84 % 0 mm 0.0 W/m2 CLR
01:40 -12.2 °C -13.8 °C 34198.6 hPa Calm     83 % 0 mm 0.0 W/m2 CLR
01:45 -11.9 °C -13.4 °C 34198.6 hPa Calm     83 % 0 mm 0.0 W/m2 CLR
01:50 -11.9 °C -13.4 °C 34198.6 hPa Calm     83 % 0 mm 0.0 W/m2 CLR
01:55 -12.2 °C -13.8 °C 34198.6 hPa Calm     83 % 0 mm 0.0 W/m2 CLR
02:00 -12.2 °C -13.9 °C 34188.4 hPa Calm     81 % 0 mm 0.0 W/m2 CLR
02:05 -12.6 °C -14.3 °C 34188.4 hPa Calm     80 % 0 mm 0.0 W/m2 CLR
02:10 -12.6 °C -14.3 °C 34188.4 hPa Calm     80 % 0 mm 0.0 W/m2 CLR
02:15 -12.6 °C -14.3 °C 34188.4 hPa Calm     80 % 0 mm 0.0 W/m2 CLR
02:20 -12.6 °C -14.3 °C 34188.4 hPa Calm     81 % 0 mm 0.0 W/m2 CLR
02:25 -12.6 °C -14.2 °C 34188.4 hPa Calm     82 % 0 mm 0.0 W/m2 CLR
02:30 -12.8 °C -14.6 °C 34188.4 hPa Calm     81 % 0 mm 0.0 W/m2 CLR
02:35 -12.8 °C -14.6 °C 34188.4 hPa Calm     81 % 0 mm 0.0 W/m2 CLR
02:40 -12.8 °C -14.7 °C 34188.4 hPa West 2.6 km/h   80 % 0 mm 0.0 W/m2 CLR
02:45 -12.8 °C -14.8 °C 34188.4 hPa Calm     79 % 0 mm 0.0 W/m2 CLR
02:50 -12.8 °C -14.8 °C 34188.4 hPa Calm     78 % 0 mm 0.0 W/m2 CLR
02:55 -13.2 °C -15.2 °C 34188.4 hPa WSW 9 km/h 9 km/h 77 % 0 mm 0.0 W/m2 CLR
03:00 -13.2 °C -15.4 °C 34188.4 hPa West 2.6 km/h 2.6 km/h 76 % 0 mm 0.0 W/m2 CLR
03:05 -13.2 °C -15.4 °C 34188.4 hPa Calm     75 % 0 mm 0.0 W/m2 CLR
03:10 -13.2 °C -15.4 °C 34188.4 hPa Calm     75 % 0 mm 0.0 W/m2 CLR
03:15 -12.8 °C -15.2 °C 34188.4 hPa Calm     75 % 0 mm 0.0 W/m2 CLR
03:20 -12.8 °C -14.9 °C 34188.4 hPa Calm     77 % 0 mm 0.0 W/m2 CLR
03:25 -12.8 °C -14.8 °C 34178.3 hPa Calm     78 % 0 mm 0.0 W/m2 CLR
03:30 -12.8 °C -14.8 °C 34178.3 hPa Calm     79 % 0 mm 0.0 W/m2 CLR
03:35 -12.8 °C -14.8 °C 34178.3 hPa Calm     79 % 0 mm 0.0 W/m2 CLR
03:40 -12.6 °C -14.3 °C 34178.3 hPa Calm     80 % 0 mm 0.0 W/m2 CLR
03:45 -12.6 °C -14.3 °C 34178.3 hPa Calm     81 % 0 mm 0.0 W/m2 CLR
03:50 -12.6 °C -14.3 °C 34178.3 hPa Calm     80 % 0 mm 0.0 W/m2 CLR
03:55 -12.6 °C -14.4 °C 34178.3 hPa Calm     79 % 0 mm 0.0 W/m2 CLR
04:00 -12.6 °C -14.4 °C 34178.3 hPa Calm     79 % 0 mm 0.0 W/m2 CLR
04:05 -12.6 °C -14.3 °C 34164.7 hPa Calm     80 % 0 mm 0.0 W/m2 CLR
04:10 -12.6 °C -14.3 °C 34178.3 hPa Calm     81 % 0 mm 0.0 W/m2 CLR
04:15 -12.6 °C -14.2 °C 34178.3 hPa Calm     82 % 0 mm 0.0 W/m2 CLR
04:20 -12.6 °C -14.2 °C 34178.3 hPa Calm     82 % 0 mm 0.0 W/m2 CLR
04:25 -12.6 °C -14.1 °C 34178.3 hPa Calm     83 % 0 mm 0.0 W/m2 CLR
04:30 -12.6 °C -13.9 °C 34178.3 hPa Calm     84 % 0 mm 0.0 W/m2 CLR
04:35 -12.6 °C -13.9 °C 34164.7 hPa Calm     84 % 0 mm 0.0 W/m2 CLR
04:40 -12.6 °C -14.1 °C 34164.7 hPa Calm     83 % 0 mm 0.0 W/m2 CLR
04:41 -12.6 °C -14.1 °C 34164.7 hPa Calm     83 % 0 mm 0.0 W/m2 CLR
04:46 -12.6 °C -14.1 °C 34164.7 hPa WSW 7.7 km/h 7.7 km/h 83 % 0 mm 0.0 W/m2 CLR
04:51 -12.6 °C -14.3 °C 34164.7 hPa West 9 km/h 9 km/h 80 % 0 mm 0.0 W/m2 CLR
04:56 -12.8 °C -14.8 °C 34164.7 hPa WNW 15 km/h 15 km/h 78 % 0 mm 0.0 W/m2 CLR
05:01 -12.8 °C -15.1 °C 34164.7 hPa Calm     76 % 0 mm 0.0 W/m2 CLR
05:06 -12.8 °C -14.9 °C 34164.7 hPa Calm     77 % 0 mm 0.0 W/m2 CLR
05:11 -12.8 °C -14.8 °C 34154.6 hPa Calm     79 % 0 mm 0.0 W/m2 CLR
05:16 -12.6 °C -14.3 °C 34154.6 hPa Calm     80 % 0 mm 0.0 W/m2 CLR
05:21 -12.2 °C -14.1 °C 34154.6 hPa Calm     80 % 0 mm 0.0 W/m2 CLR
05:26 -11.9 °C -13.7 °C 34154.6 hPa Calm     81 % 0 mm 0.0 W/m2 CLR
05:31 -11.9 °C -13.7 °C 34154.6 hPa Calm     81 % 0 mm 0.0 W/m2 CLR
05:36 -11.9 °C -13.7 °C 34154.6 hPa Calm     81 % 0 mm 0.0 W/m2 CLR
05:41 -12.2 °C -14.1 °C 34154.6 hPa Calm   0.3 km/h 80 % 0 mm 0.0 W/m2 CLR
05:46 -12.6 °C -14.4 °C 34154.6 hPa SW 3.1 km/h   79 % 0 mm 0.0 W/m2 CLR
05:51 -12.8 °C -14.9 °C 34154.6 hPa Calm     77 % 0 mm 0.0 W/m2 CLR
05:56 -13.2 °C -15.2 °C 34164.7 hPa Calm     77 % 0 mm 0.0 W/m2 CLR
06:01 -13.2 °C -15.4 °C 34154.6 hPa West 15 km/h 15 km/h 76 % 0 mm 0.0 W/m2 CLR
06:06 -13.2 °C -15.4 °C 34154.6 hPa WSW 17.9 km/h 17.9 km/h 75 % 0 mm 0.0 W/m2 CLR
06:11 -13.2 °C -15.4 °C 34154.6 hPa Calm     75 % 0 mm 0.0 W/m2 CLR
06:16 -13.2 °C -15.4 °C 34154.6 hPa Calm     76 % 0 mm 0.0 W/m2 CLR
06:21 -12.8 °C -14.9 °C 34154.6 hPa Calm     77 % 0 mm 0.0 W/m2 CLR
06:26 -12.8 °C -14.8 °C 34154.6 hPa Calm     78 % 0 mm 0.0 W/m2 CLR
06:31 -12.8 °C -14.8 °C 34154.6 hPa Calm     79 % 0 mm 0.0 W/m2 CLR
06:36 -12.8 °C -14.7 °C 34164.7 hPa Calm     80 % 0 mm 0.0 W/m2 CLR
06:41 -12.8 °C -14.7 °C 34154.6 hPa Calm     80 % 0 mm 0.0 W/m2 CLR
06:46 -12.8 °C -14.7 °C 34154.6 hPa Calm     80 % 0 mm 0.0 W/m2 CLR
06:51 -12.8 °C -14.6 °C 34154.6 hPa Calm     81 % 0 mm 0.0 W/m2 CLR
06:56 -12.8 °C -14.6 °C 34154.6 hPa Calm     81 % 0 mm 0.0 W/m2 CLR
07:01 -12.8 °C -14.6 °C 34154.6 hPa Calm     81 % 0 mm 0.0 W/m2 CLR
07:06 -12.8 °C -14.4 °C 34164.7 hPa Calm     82 % 0 mm 0.0 W/m2 CLR
07:11 -12.8 °C -14.4 °C 34164.7 hPa Calm     82 % 0 mm 0.0 W/m2 OVC
07:16 -13.2 °C -14.8 °C 34164.7 hPa Calm     82 % 0 mm 0.0 W/m2 OVC
07:21 -13.2 °C -14.8 °C 34154.6 hPa Calm     82 % 0 mm 0.0 W/m2 OVC
07:26 -13.2 °C -14.8 °C 34154.6 hPa Calm     82 % 0 mm 0.0 W/m2 OVC
07:31 -13.2 °C -14.8 °C 34154.6 hPa Calm     82 % 7.62 mm 5.0 W/m2 RA
07:36 -13.2 °C -14.8 °C 34164.7 hPa Calm     82 % 7.62 mm 5.0 W/m2
07:41 -12.8 °C -14.3 °C 34164.7 hPa Calm     83 % 7.62 mm 7.0 W/m2 CLR
07:46 -12.8 °C -14.3 °C 34164.7 hPa Calm     83 % 7.62 mm 9.0 W/m2 BKN
07:51 -12.8 °C -14.3 °C 34164.7 hPa Calm     83 % 7.62 mm 12.0 W/m2 BKN
07:56 -12.8 °C -14.3 °C 34164.7 hPa Calm     83 % 7.62 mm 16.0 W/m2 BKN
08:01 -12.8 °C -14.3 °C 34164.7 hPa Calm     83 % 7.62 mm 25.0 W/m2 BKN
08:06 -12.6 °C -14.1 °C 34164.7 hPa WSW 9 km/h 9 km/h 83 % 7.62 mm 33.0 W/m2 BKN
08:11 -12.6 °C -14.3 °C 34164.7 hPa WSW 17.9 km/h 17.9 km/h 80 % 7.62 mm 40.0 W/m2 BKN
08:16 -12.6 °C -14.7 °C 34164.7 hPa Calm     77 % 7.62 mm 40.0 W/m2 BKN
08:21 -12.6 °C -14.7 °C 34164.7 hPa Calm     77 % 7.62 mm 42.0 W/m2 BKN
08:26 -12.2 °C -14.6 °C 34164.7 hPa SW 9 km/h 9 km/h 75 % 7.62 mm 30.0 W/m2 BKN
08:32 -11.9 °C -14.4 °C 34164.7 hPa SW 9 km/h 9 km/h 74 % 0 mm 33.0 W/m2 BKN
08:37 -11.9 °C -14.4 °C 34164.7 hPa WSW 9 km/h 9 km/h 74 % 0 mm 25.0 W/m2 BKN
08:42 -11.9 °C -14.5 °C 34164.7 hPa SW 11.9 km/h 11.9 km/h 73 % 0 mm 23.0 W/m2 BKN
08:47 -11.6 °C -14.2 °C 34164.7 hPa West 6 km/h 6 km/h 73 % 0 mm 35.0 W/m2 BKN
08:52 -11.6 °C -14.3 °C 34164.7 hPa Calm     72 % 0 mm 54.0 W/m2 BKN
08:57 -11.6 °C -14.3 °C 34164.7 hPa NE 6 km/h 6 km/h 72 % 0 mm 72.0 W/m2 SCT
09:02 -11.6 °C -14.1 °C 34164.7 hPa ENE 9 km/h 9 km/h 74 % 0 mm 65.0 W/m2 SCT
09:07 -11.3 °C -13.7 °C 34164.7 hPa NE 9 km/h 9 km/h 75 % 0 mm 72.0 W/m2 FEW
09:12 -11.3 °C -13.6 °C 34164.7 hPa Calm     76 % 0 mm 98.0 W/m2 FEW
09:17 -11.3 °C -13.6 °C 34164.7 hPa NE 7.7 km/h 7.7 km/h 76 % 0 mm 102.0 W/m2 CLR
09:22 -11 °C -13.3 °C 34164.7 hPa Calm     76 % 0 mm 114.0 W/m2 CLR
09:27 -11 °C -13.1 °C 34164.7 hPa Calm     78 % 0 mm 130.0 W/m2 CLR
09:32 -11 °C -13.2 °C 34154.6 hPa Calm     77 % 0 mm 153.0 W/m2 CLR
09:37 -10.7 °C -12.9 °C 34178.3 hPa Calm     77 % 0 mm 183.0 W/m2 CLR
09:42 -10.7 °C -12.9 °C 34178.3 hPa Calm     76 % 0 mm 192.0 W/m2 CLR
09:47 -10.4 °C -12.8 °C 34188.4 hPa Calm     75 % 0 mm 271.0 W/m2 CLR
09:52 -10.4 °C -12.8 °C 34188.4 hPa Calm     75 % 0 mm 176.0 W/m2 CLR
09:57 -10.1 °C -12.6 °C 34178.3 hPa Calm     74 % 0 mm 160.0 W/m2 CLR
10:02 -10.1 °C -12.6 °C 34188.4 hPa Calm     74 % 0 mm 160.0 W/m2 CLR
10:07 -9.8 °C -12.3 °C 34178.3 hPa Calm     74 % 0 mm 288.0 W/m2 CLR
10:12 -9.4 °C -12 °C 34178.3 hPa Calm     74 % 0 mm 153.0 W/m2 CLR
10:17 -9.4 °C -12.1 °C 34178.3 hPa Calm     73 % 0 mm 213.0 W/m2 CLR
10:22 -9.1 °C -11.8 °C 34178.3 hPa Calm     73 % 0 mm 255.0 W/m2 CLR
10:27 -9.1 °C -11.7 °C 34178.3 hPa Calm     74 % 0 mm 283.0 W/m2 CLR
10:32 -8.8 °C -11.5 °C 34178.3 hPa Calm     73 % 0 mm 185.0 W/m2 CLR
10:37 -8.5 °C -11.6 °C 34178.3 hPa Calm     70 % 0 mm 144.0 W/m2 CLR
10:42 -8.5 °C -12.1 °C 34178.3 hPa SSW 17.9 km/h 17.9 km/h 66 % 0 mm 144.0 W/m2 CLR
10:47 -8.5 °C -12.4 °C 34178.3 hPa SSW 20.9 km/h 20.9 km/h 63 % 0 mm 171.0 W/m2 CLR
10:52 -8.2 °C -12.2 °C 34178.3 hPa SSW 15.6 km/h 15.6 km/h 63 % 0 mm 158.0 W/m2 CLR
10:57 -8.2 °C -12.3 °C 34178.3 hPa South 9 km/h 9 km/h 62 % 0 mm 188.0 W/m2 CLR
11:02 -7.9 °C -11.9 °C 34164.7 hPa SSW 10.3 km/h 10.3 km/h 63 % 0 mm 287.0 W/m2 CLR
11:07 -7.6 °C -11.8 °C 34164.7 hPa SW 20.9 km/h 20.9 km/h 61 % 0 mm 309.0 W/m2 CLR
11:12 -7.6 °C -12 °C 34164.7 hPa SSW 25.9 km/h 25.9 km/h 60 % 0 mm 320.0 W/m2 CLR
11:17 -7.3 °C -11.8 °C 34154.6 hPa SSW 23.8 km/h 23.8 km/h 59 % 0 mm 341.0 W/m2 CLR
11:22 -7 °C -11.8 °C 34154.6 hPa SSW 20.9 km/h 20.9 km/h 57 % 0 mm 390.0 W/m2 CLR
11:27 -7 °C -12.1 °C 34154.6 hPa SSW 26.9 km/h 26.9 km/h 55 % 0 mm 396.0 W/m2 CLR
11:32 -6.7 °C -11.6 °C 34154.6 hPa SSW 15 km/h 15 km/h 57 % 0 mm 385.0 W/m2 CLR
11:37 -6.7 °C -11.7 °C 34154.6 hPa SW 20.9 km/h 20.9 km/h 56 % 0 mm 485.0 W/m2 CLR
11:42 -6.3 °C -12.2 °C 34154.6 hPa SSW 29.8 km/h 29.8 km/h 51 % 0 mm 417.0 W/m2 CLR
11:47 -6.3 °C -12.2 °C 34144.4 hPa SW 26.9 km/h 26.9 km/h 51 % 0 mm 403.0 W/m2 CLR
11:52 -6.3 °C -12.2 °C 34144.4 hPa SSW 32.8 km/h 32.8 km/h 51 % 0 mm 355.0 W/m2 CLR
11:57 -6.3 °C -12.3 °C 34144.4 hPa SSW 20.9 km/h 20.9 km/h 50 % 0 mm 388.0 W/m2 CLR
12:02 -6.1 °C -11.9 °C 34130.9 hPa SSW 11.9 km/h 11.9 km/h 51 % 0 mm 795.0 W/m2 CLR
12:07 -5.4 °C -11.5 °C 34130.9 hPa SW 10.3 km/h 10.3 km/h 50 % 0 mm 765.0 W/m2 CLR
12:12 -5.4 °C -12 °C 34130.9 hPa South 23.8 km/h 23.8 km/h 47 % 0 mm 721.0 W/m2 CLR
12:17 -5.4 °C -11.8 °C 34120.7 hPa SSW 33.6 km/h 33.6 km/h 48 % 0 mm 276.0 W/m2 CLR
12:22 -5.7 °C -12.1 °C 34120.7 hPa South 12.9 km/h 12.9 km/h 48 % 0 mm 807.0 W/m2 CLR
12:27 -5.4 °C -12.2 °C 34120.7 hPa SW 26.9 km/h 26.9 km/h 46 % 0 mm 469.0 W/m2 CLR
12:32 -5.4 °C -12.6 °C 34120.7 hPa WSW 41.7 km/h 41.7 km/h 44 % 0 mm 649.0 W/m2 CLR
12:37 -5.4 °C -12.4 °C 34120.7 hPa SW 17.9 km/h 17.9 km/h 45 % 0 mm 554.0 W/m2 CLR
12:42 -5.4 °C -12.2 °C 34120.7 hPa WSW 9 km/h 9 km/h 46 % 0 mm 269.0 W/m2 CLR
12:47 -5.4 °C -12.2 °C 34107.2 hPa SSW 17.9 km/h 17.9 km/h 46 % 0 mm 206.0 W/m2 CLR
12:52 -5.7 °C -12.4 °C 34107.2 hPa SW 9 km/h 9 km/h 46 % 0 mm 188.0 W/m2 CLR
12:57 -5.7 °C -12.4 °C 34107.2 hPa Calm     46 % 0 mm 279.0 W/m2 CLR
13:02 -5.7 °C -12.8 °C 34097 hPa SSW 9 km/h 9 km/h 44 % 0 mm 265.0 W/m2 CLR
13:07 -5.7 °C -12.8 °C 34097 hPa Calm     44 % 0 mm 251.0 W/m2 CLR
13:12 -5.7 °C -12.8 °C 34097 hPa SSW 2.6 km/h 2.6 km/h 44 % 0 mm 202.0 W/m2 CLR
13:17 -5.7 °C -12.7 °C 34097 hPa SSW 9 km/h 9 km/h 45 % 0 mm 144.0 W/m2 CLR
13:22 -5.7 °C -12.4 °C 34097 hPa WSW 35.7 km/h 35.7 km/h 46 % 0 mm 144.0 W/m2 CLR
13:27 -6.1 °C -12.6 °C 34097 hPa SW 50.7 km/h 50.7 km/h 47 % 0 mm 116.0 W/m2 CLR
13:32 -6.7 °C -12.9 °C 34086.9 hPa SSW 9 km/h 9 km/h 48 % 0 mm 179.0 W/m2 CLR
13:37 -6.7 °C -12.4 °C 34086.9 hPa SSW 9 km/h 9 km/h 51 % 0 mm 334.0 W/m2 CLR
13:42 -6.3 °C -12.3 °C 34086.9 hPa West 29.8 km/h 29.8 km/h 50 % 0 mm 640.0 W/m2 CLR
13:47 -6.1 °C -12.4 °C 34073.3 hPa NW 15 km/h 15 km/h 48 % 0 mm 232.0 W/m2 CLR
13:52 -6.3 °C -12.7 °C 34073.3 hPa WNW 9 km/h 9 km/h 48 % 0 mm 185.0 W/m2 CLR
13:57 -6.3 °C -12.1 °C 34073.3 hPa Calm     52 % 0 mm 141.0 W/m2 CLR
14:02 -6.3 °C -11.6 °C 34063.2 hPa NW 20.9 km/h 20.9 km/h 55 % 0 mm 239.0 W/m2 CLR
14:07 -6.3 °C -11.4 °C 34063.2 hPa Calm     56 % 0 mm 352.0 W/m2 CLR
14:12 -6.3 °C -11.1 °C 34063.2 hPa Calm     58 % 0 mm 466.0 W/m2 CLR
14:17 -6.1 °C -11.4 °C 34049.6 hPa Calm     54 % 0 mm 316.0 W/m2 CLR
14:22 -6.1 °C -11.4 °C 34049.6 hPa Calm   1 km/h 54 % 0 mm 346.0 W/m2 CLR
14:27 -6.1 °C -11.6 °C 34049.6 hPa Calm     53 % 0 mm 450.0 W/m2 CLR
14:32 -5.7 °C -11.6 °C 34049.6 hPa West 17.9 km/h 17.9 km/h 51 % 0 mm 373.0 W/m2 CLR
14:37 -5.7 °C -11.6 °C 34039.5 hPa WNW 11.9 km/h 11.9 km/h 51 % 0 mm 454.0 W/m2 CLR
14:42 -5.7 °C -11.6 °C 34039.5 hPa NW 9 km/h 9 km/h 51 % 0 mm 309.0 W/m2 CLR
14:47 -5.7 °C -11.9 °C 34039.5 hPa NW 15 km/h 15 km/h 49 % 0 mm 262.0 W/m2 CLR
14:52 -5.4 °C -11.3 °C 34029.3 hPa NW 17.9 km/h 17.9 km/h 51 % 0 mm 824.0 W/m2 CLR
14:57 -5.4 °C -12 °C 34029.3 hPa WNW 6 km/h   47 % 0 mm 863.0 W/m2 CLR
15:02 -5.1 °C -11.9 °C 34015.8 hPa Calm     46 % 0 mm 800.0 W/m2 CLR
15:07 -5.1 °C -11.9 °C 34015.8 hPa North 9 km/h   46 % 0 mm 190.0 W/m2 CLR
15:12 -5.4 °C -12.4 °C 34015.8 hPa West 7.7 km/h 7.7 km/h 45 % 0 mm 142.0 W/m2 CLR
15:17 -5.4 °C -12.4 °C 34015.8 hPa West 17.9 km/h 17.9 km/h 45 % 0 mm 125.0 W/m2 CLR
15:22 -5.7 °C -12.7 °C 34015.8 hPa Calm     45 % 0 mm 241.0 W/m2 CLR
15:27 -5.7 °C -12.4 °C 34015.8 hPa Calm     46 % 0 mm 209.0 W/m2 CLR
15:32 -5.7 °C -12.4 °C 34015.8 hPa Calm     46 % 0 mm 316.0 W/m2 CLR
15:37 -5.4 °C -12.4 °C 34015.8 hPa South 9 km/h   45 % 0 mm 483.0 W/m2 CLR
15:43 -5.1 °C -12.1 °C 34005.6 hPa WSW 9 km/h 9 km/h 45 % 0 mm 643.0 W/m2 CLR
15:48 -5.1 °C -12.3 °C 34005.6 hPa SSW 15 km/h 15 km/h 44 % 0 mm 561.0 W/m2 CLR
15:53 -5.1 °C -12.3 °C 33992.1 hPa SW 17.9 km/h 17.9 km/h 44 % 0 mm 387.0 W/m2 CLR
15:58 -5.1 °C -12.1 °C 33992.1 hPa SW 17.9 km/h 17.9 km/h 45 % 0 mm 557.0 W/m2 CLR
16:03 -5.1 °C -12.3 °C 33992.1 hPa SW 17.9 km/h 17.9 km/h 44 % 0 mm 149.0 W/m2 CLR
16:08 -5.4 °C -12.4 °C 33992.1 hPa SW 9 km/h 9 km/h 45 % 0 mm 172.0 W/m2 CLR
16:13 -5.4 °C -12.6 °C 33992.1 hPa WSW 17.9 km/h 17.9 km/h 44 % 0 mm 450.0 W/m2 CLR
16:18 -5.4 °C -12.4 °C 33992.1 hPa WSW 10.3 km/h 11.4 km/h 45 % 0 mm 223.0 W/m2 CLR
16:23 -5.4 °C -12.6 °C 33992.1 hPa WSW 15 km/h 15 km/h 44 % 0 mm 227.0 W/m2 CLR
16:28 -5.4 °C -12.4 °C 33992.1 hPa SSW 23.8 km/h 23.8 km/h 45 % 0 mm 171.0 W/m2 CLR
16:33 -5.4 °C -12.2 °C 33992.1 hPa South 23.8 km/h 23.8 km/h 46 % 0 mm 109.0 W/m2 CLR
16:38 -5.7 °C -12.4 °C 33992.1 hPa SSW 6 km/h   46 % 0 mm 65.0 W/m2 CLR
16:43 -6.1 °C -12.6 °C 33992.1 hPa SSW 5.1 km/h 5.1 km/h 47 % 0 mm 67.0 W/m2 FEW
16:48 -6.1 °C -12.6 °C 33992.1 hPa SW 9 km/h 9 km/h 47 % 0 mm 72.0 W/m2 FEW
16:53 -6.1 °C -12.6 °C 33992.1 hPa SW 9 km/h   47 % 0 mm 95.0 W/m2 FEW
16:58 -6.1 °C -12.6 °C 34005.6 hPa West 23.8 km/h 23.8 km/h 47 % 0 mm 26.0 W/m2 FEW
17:03 -6.3 °C -12.6 °C 34015.8 hPa NNE 47.6 km/h 47.6 km/h 49 % 0 mm 35.0 W/m2 BKN
17:08 -6.7 °C -12.6 °C 34015.8 hPa North 75.2 km/h 75.2 km/h 50 % 0 mm 49.0 W/m2 BKN
17:13 -7.3 °C -12.6 °C 34015.8 hPa NNW 68.6 km/h 68.6 km/h 54 % 0 mm 37.0 W/m2 BKN
17:18 -7.6 °C -12.6 °C 34015.8 hPa NNW 41.7 km/h 41.7 km/h 56 % 0 mm 35.0 W/m2 BKN
17:23 -7.9 °C -12.7 °C 34029.3 hPa NNW 44.7 km/h 44.7 km/h 57 % 0 mm 21.0 W/m2 BKN
17:28 -8.2 °C -12.8 °C 34029.3 hPa NNW 41.4 km/h 41.4 km/h 58 % 0 mm 12.0 W/m2 BKN
17:33 -8.2 °C -12.7 °C 34029.3 hPa NNW 35.7 km/h 35.7 km/h 59 % 0 mm 14.0 W/m2 BKN
17:38 -8.2 °C -12.7 °C 34029.3 hPa North 26.9 km/h 26.9 km/h 59 % 0 mm 14.0 W/m2 BKN
17:43 -8.5 °C -13 °C 34039.5 hPa NW 29.8 km/h 29.8 km/h 59 % 0 mm 18.0 W/m2 BKN
17:48 -8.5 °C -13 °C 34039.5 hPa NW 26.9 km/h 26.9 km/h 59 % 0 mm 16.0 W/m2 BKN
17:53 -8.5 °C -12.8 °C 34039.5 hPa WNW 17.9 km/h 17.9 km/h 60 % 0 mm 11.0 W/m2 BKN
17:58 -8.5 °C -12.6 °C 34049.6 hPa Calm     62 % 0 mm 7.0 W/m2 BKN
18:03 -8.8 °C -12.5 °C 34063.2 hPa Calm     65 % 12.7 mm 7.0 W/m2 RA
18:08 -8.8 °C -12 °C 34063.2 hPa Calm     69 % 38.1 mm 5.0 W/m2 RA
18:13 -9.4 °C -12.1 °C 34063.2 hPa Calm     73 % 45.72 mm 5.0 W/m2 RA
18:14 -9.4 °C -12.1 °C 34063.2 hPa Calm     73 % 50.8 mm 5.0 W/m2 RA
18:19 -9.8 °C -12.2 °C 34063.2 hPa Calm     75 % 50.8 mm 0.0 W/m2
18:24 -10.1 °C -12.3 °C 34063.2 hPa Calm     77 % 50.8 mm 5.0 W/m2 CLR
18:29 -10.1 °C -12.1 °C 34063.2 hPa Calm     79 % 50.8 mm 5.0 W/m2 OVC
18:34 -10.1 °C -12.1 °C 34063.2 hPa Calm     79 % 50.8 mm 5.0 W/m2 OVC
18:39 -10.1 °C -11.9 °C 34063.2 hPa Calm     80 % 50.8 mm 0.0 W/m2 OVC
18:44 -10.1 °C -11.9 °C 34039.5 hPa SSW 17.9 km/h 17.9 km/h 80 % 50.8 mm 0.0 W/m2 OVC
18:49 -10.4 °C -12.4 °C 34015.8 hPa South 26.9 km/h 26.9 km/h 78 % 50.8 mm 23.0 W/m2 BKN
18:54 -10.4 °C -12.1 °C 34015.8 hPa SSW 23.8 km/h 23.8 km/h 81 % 50.8 mm 23.0 W/m2 BKN
18:59 -10.4 °C -12.1 °C 34005.6 hPa SSW 23.8 km/h 23.8 km/h 81 % 45.72 mm 19.0 W/m2 BKN
19:04 -10.4 °C -12.3 °C 34005.6 hPa WSW 6 km/h   80 % 38.1 mm 7.0 W/m2 OVC
19:09 -10.4 °C -12.1 °C 34015.8 hPa NNW 11.9 km/h 11.9 km/h 81 % 12.7 mm 0.0 W/m2 OVC
19:14 -10.4 °C -12.1 °C 34005.6 hPa Calm     82 % 0 mm 0.0 W/m2 CLR
19:19 -10.4 °C -11.9 °C 34015.8 hPa Calm     83 % 0 mm 0.0 W/m2 CLR
19:24 -10.4 °C -11.8 °C 34015.8 hPa NNW 15 km/h 15 km/h 84 % 0 mm 0.0 W/m2 CLR
19:29 -10.4 °C -11.9 °C 34015.8 hPa Calm     83 % 0 mm 0.0 W/m2 CLR
19:34 -10.7 °C -12.3 °C 34029.3 hPa Calm     83 % 0 mm 0.0 W/m2 CLR
19:39 -10.7 °C -12.1 °C 34029.3 hPa Calm     84 % 0 mm 0.0 W/m2 CLR
19:44 -10.7 °C -12.1 °C 34015.8 hPa Calm     85 % 0 mm 0.0 W/m2 CLR
19:49 -10.7 °C -11.9 °C 34029.3 hPa Calm     86 % 0 mm 0.0 W/m2 CLR
19:54 -11 °C -12.3 °C 34015.8 hPa Calm     86 % 0 mm 0.0 W/m2 CLR
19:59 -11 °C -12.3 °C 34029.3 hPa Calm     86 % 0 mm 0.0 W/m2 CLR
20:04 -11 °C -12.3 °C 34039.5 hPa Calm     86 % 0 mm 0.0 W/m2 CLR
20:09 -11 °C -12.2 °C 34039.5 hPa Calm     87 % 0 mm 0.0 W/m2 CLR
20:14 -11 °C -12.2 °C 34039.5 hPa Calm     87 % 0 mm 0.0 W/m2 CLR
20:19 -11.3 °C -12.4 °C 34039.5 hPa Calm     87 % 0 mm 0.0 W/m2 CLR
20:24 -11 °C -12.1 °C 34029.3 hPa Calm     88 % 0 mm 0.0 W/m2 CLR
20:29 -11.3 °C -12.4 °C 34039.5 hPa Calm     88 % 0 mm 0.0 W/m2 CLR
20:34 -11 °C -12.1 °C 34039.5 hPa Calm     88 % 0 mm 0.0 W/m2 CLR
20:39 -11 °C -12.1 °C 34039.5 hPa Calm     88 % 0 mm 0.0 W/m2 CLR
20:44 -11 °C -12.1 °C 34039.5 hPa Calm     88 % 0 mm 0.0 W/m2 CLR
20:49 -11 °C -12.1 °C 34049.6 hPa NW 6 km/h 6 km/h 88 % 0 mm 0.0 W/m2 CLR
20:54 -11.3 °C -12.4 °C 34049.6 hPa Calm     87 % 0 mm 0.0 W/m2 CLR
20:59 -11.3 °C -12.4 °C 34049.6 hPa Calm     87 % 0 mm 0.0 W/m2 CLR
21:04 -11.3 °C -12.4 °C 34049.6 hPa Calm     87 % 0 mm 0.0 W/m2 CLR
21:09 -11.3 °C -12.4 °C 34039.5 hPa Calm     87 % 0 mm 0.0 W/m2 CLR
21:14 -11.6 °C -12.7 °C 34039.5 hPa Calm     88 % 0 mm 0.0 W/m2 CLR
21:19 -11.6 °C -12.7 °C 34049.6 hPa Calm     88 % 0 mm 0.0 W/m2 CLR
21:24 -11.6 °C -12.7 °C 34049.6 hPa Calm     88 % 0 mm 0.0 W/m2 CLR
21:29 -11.6 °C -13.1 °C 34049.6 hPa NW 11.9 km/h 11.9 km/h 84 % 0 mm 0.0 W/m2 CLR
21:34 -11.6 °C -14.1 °C 34039.5 hPa NW 18.2 km/h 18.2 km/h 74 % 0 mm 0.0 W/m2 CLR
21:39 -11.6 °C -14.7 °C 34029.3 hPa NW 12.9 km/h 13.2 km/h 69 % 0 mm 0.0 W/m2 CLR
21:44 -11.9 °C -14.6 °C 34039.5 hPa NNW 11.9 km/h 11.9 km/h 72 % 0 mm 0.0 W/m2 CLR
21:49 -11.9 °C -14.9 °C 34029.3 hPa NW 11.9 km/h 11.9 km/h 69 % 0 mm 0.0 W/m2 CLR
21:54 -11.9 °C -14.8 °C 34015.8 hPa NNW 15 km/h 15 km/h 70 % 0 mm 0.0 W/m2 CLR
21:59 -11.9 °C -14.9 °C 34029.3 hPa Calm     69 % 0 mm 0.0 W/m2 CLR
22:04 -11.9 °C -14.1 °C 34039.5 hPa SSE 9 km/h 9 km/h 77 % 0 mm 0.0 W/m2 CLR
22:09 -11.9 °C -13.7 °C 34039.5 hPa Calm     81 % 0 mm 0.0 W/m2 CLR
22:14 -11.9 °C -13.4 °C 34039.5 hPa Calm     84 % 0 mm 0.0 W/m2 CLR
22:19 -11.9 °C -13.4 °C 34039.5 hPa Calm     84 % 0 mm 0.0 W/m2 CLR
22:25 -11.9 °C -13.3 °C 34049.6 hPa Calm     85 % 0 mm 0.0 W/m2 CLR
22:30 -11.9 °C -13.3 °C 34049.6 hPa Calm     85 % 0 mm 0.0 W/m2 CLR
22:35 -11.9 °C -13.4 °C 34049.6 hPa Calm     84 % 0 mm 0.0 W/m2 CLR
22:40 -11.9 °C -13.4 °C 34049.6 hPa Calm     84 % 0 mm 0.0 W/m2 CLR
22:45 -11.9 °C -13.4 °C 34049.6 hPa Calm     83 % 0 mm 0.0 W/m2 CLR
22:50 -11.9 °C -13.4 °C 34039.5 hPa Calm     83 % 0 mm 0.0 W/m2 CLR
22:55 -11.9 °C -13.6 °C 34039.5 hPa Calm     82 % 0 mm 0.0 W/m2 CLR
23:00 -11.9 °C -14.1 °C 34029.3 hPa Calm     77 % 0 mm 0.0 W/m2 CLR
23:05 -11.9 °C -13.9 °C 34029.3 hPa North 15 km/h 15 km/h 78 % 0 mm 0.0 W/m2 CLR
23:10 -12.2 °C -14.2 °C 34039.5 hPa NNW 9 km/h 9 km/h 79 % 0 mm 0.0 W/m2 CLR
23:15 -12.2 °C -14.3 °C 34029.3 hPa North 9 km/h 9 km/h 78 % 0 mm 0.0 W/m2 CLR
23:20 -12.6 °C -14.6 °C 34029.3 hPa Calm     78 % 0 mm 0.0 W/m2 CLR
23:25 -12.6 °C -14.3 °C 34029.3 hPa Calm     80 % 0 mm 0.0 W/m2 CLR
23:30 -12.2 °C -13.9 °C 34039.5 hPa Calm     81 % 0 mm 0.0 W/m2 CLR
23:35 -12.2 °C -13.8 °C 34039.5 hPa Calm     82 % 0 mm 0.0 W/m2 CLR
23:40 -12.6 °C -14.2 °C 34039.5 hPa Calm     82 % 0 mm 0.0 W/m2 CLR
23:45 -12.6 °C -14.2 °C 34039.5 hPa Calm     82 % 0 mm 0.0 W/m2 CLR
23:50 -12.6 °C -14.3 °C 34039.5 hPa Calm     81 % 0 mm 0.0 W/m2 CLR
23:55 -12.6 °C -14.3 °C 34039.5 hPa Calm     81 % 0 mm 0.0 W/m2 CLR
Lo Temps de Massalio
Compliments of Weather Underground - 1.25 mb